ADDS TAF Board (Experimental) INFO Settings
IDs:

KMCI - Kansas City Intl, MO, US

Issued at 1127 UTC 06 Feb 2016
Updated at: 1134 UTC 06 Feb 2016
Time1053Z 06/12Z 06/13Z 06/14Z 06/15Z 06/16Z 06/17Z 06/18Z 06/19Z 06/20Z 06/21Z 06/22Z 06/23Z 07/00Z
Type OBS PRVL PRVL PRVL PRVL PRVL PRVL PRVL PRVL PRVL PRVL PRVL PRVL PRVL
VIS 10 >6 >6 >6 >6 >6 >6 >6 >6 >6 >6 >6 >6 >6
CIG -- -- -- -- -- -- -- -- -- -- -- -- 200 200
Cover CLR SKC SKC SKC SKC SKC SKC SKC SKC SKC SKC SKC BKN BKN
FltCat VFR VFR VFR VFR VFR VFR VFR VFR VFR VFR VFR VFR VFR VFR
WX -- -- -- -- -- -- -- -- -- -- -- -- -- --
WDir 350 260 260 260 260 260 260 260 260 260 260 260 210 210
WSpd 4 7 7 7 7 7 7 7 7 7 7 7 9 9
WGst -- -- -- -- -- -- -- -- -- -- -- -- -- --
R01/19
XWnd 2 6 6 6 6 6 6 6 6 6 6 6 3 3
HWnd 4 -3 -3 -3 -3 -3 -3 -3 -3 -3 -3 -3 -9 -9
R09/27
XWnd 4 -2 -2 -2 -2 -2 -2 -2 -2 -2 -2 -2 -8 -8
HWnd -1 -7 -7 -7 -7 -7 -7 -7 -7 -7 -7 -7 -4 -4

NOTE: TEMPO conditions in [brackets]. Keep in mind TEMPO conditions might be better (lower impact) than prevailing conditions.

Raw TAF
KMCI 061127Z 0612/0712 26007KT P6SM SKC
  FM062300 21009KT P6SM BKN200


Raw METAR
KMCI 061053Z 35004KT 10SM CLR M02/M05 A3025 RMK AO2 SLP252 T10171050
KMCI 060953Z 03004KT 10SM CLR M02/M05 A3024 RMK AO2 SLP249 T10171050
KMCI 060853Z 01005KT 10SM CLR M01/M04 A3025 RMK AO2 SLP250 T10111044 55002

METAR Board
Radar Display
Forecast Discussion

TAF Board Legend

Potential Impact
Threat None Slight Moderate High
Visibility (sm) ≥5.1 5.1>X≥3 3>X≥1 <1
Ceiling (100 ft) ≥30.1 30.1>X≥10 10>X≥5 <5
Wind Speed (kt) <10 10≤X<20 20≤X<30 ≥30
Wind Gust (kt) <15 15≤X<25 25≤X<35 ≥35
Weather No Wx Reported VCTS,-TS,-FZRA,SN TS,FZRA +TS,+FZRA,+SN